sensor_id;sensor_type;location;lat;lon;timestamp;temperature;humidity
38464;DHT22;24243;51.956;5.902;2023-03-05T00:01:36;18.70;52.70
38464;DHT22;24243;51.956;5.902;2023-03-05T00:04:02;18.70;52.70
38464;DHT22;24243;51.956;5.902;2023-03-05T00:06:28;18.70;52.70
38464;DHT22;24243;51.956;5.902;2023-03-05T00:08:54;18.60;52.70
38464;DHT22;24243;51.956;5.902;2023-03-05T00:11:22;18.60;52.70
38464;DHT22;24243;51.956;5.902;2023-03-05T00:13:53;18.60;52.70
38464;DHT22;24243;51.956;5.902;2023-03-05T00:16:19;18.60;52.80
38464;DHT22;24243;51.956;5.902;2023-03-05T00:18:44;18.60;52.80
38464;DHT22;24243;51.956;5.902;2023-03-05T00:21:21;18.60;52.80
38464;DHT22;24243;51.956;5.902;2023-03-05T00:23:47;18.50;52.80
38464;DHT22;24243;51.956;5.902;2023-03-05T00:26:15;18.50;52.80
38464;DHT22;24243;51.956;5.902;2023-03-05T00:28:41;18.50;52.80
38464;DHT22;24243;51.956;5.902;2023-03-05T00:31:06;18.50;52.80
38464;DHT22;24243;51.956;5.902;2023-03-05T00:33:32;18.50;52.80
38464;DHT22;24243;51.956;5.902;2023-03-05T00:35:57;18.50;52.80
38464;DHT22;24243;51.956;5.902;2023-03-05T00:38:25;18.50;52.80
38464;DHT22;24243;51.956;5.902;2023-03-05T00:40:51;18.50;52.80
38464;DHT22;24243;51.956;5.902;2023-03-05T00:43:17;18.50;52.80
38464;DHT22;24243;51.956;5.902;2023-03-05T00:45:42;18.50;52.80
38464;DHT22;24243;51.956;5.902;2023-03-05T00:48:08;18.40;52.80
38464;DHT22;24243;51.956;5.902;2023-03-05T00:50:34;18.40;52.80
38464;DHT22;24243;51.956;5.902;2023-03-05T00:52:59;18.40;52.80
38464;DHT22;24243;51.956;5.902;2023-03-05T00:55:25;18.40;52.80
38464;DHT22;24243;51.956;5.902;2023-03-05T00:57:50;18.40;52.80
38464;DHT22;24243;51.956;5.902;2023-03-05T01:00:16;18.40;52.80
38464;DHT22;24243;51.956;5.902;2023-03-05T01:02:41;18.30;52.70
38464;DHT22;24243;51.956;5.902;2023-03-05T01:05:09;18.30;52.80
38464;DHT22;24243;51.956;5.902;2023-03-05T01:07:35;18.30;52.80
38464;DHT22;24243;51.956;5.902;2023-03-05T01:10:00;18.30;52.80
38464;DHT22;24243;51.956;5.902;2023-03-05T01:12:26;18.30;52.80
38464;DHT22;24243;51.956;5.902;2023-03-05T01:14:51;18.30;52.80
38464;DHT22;24243;51.956;5.902;2023-03-05T01:17:17;18.30;52.80
38464;DHT22;24243;51.956;5.902;2023-03-05T01:19:43;18.30;52.80
38464;DHT22;24243;51.956;5.902;2023-03-05T01:22:08;18.20;52.80
38464;DHT22;24243;51.956;5.902;2023-03-05T01:24:34;18.30;52.80
38464;DHT22;24243;51.956;5.902;2023-03-05T01:26:59;18.20;52.80
38464;DHT22;24243;51.956;5.902;2023-03-05T01:29:25;18.20;52.80
38464;DHT22;24243;51.956;5.902;2023-03-05T01:31:51;18.20;52.80
38464;DHT22;24243;51.956;5.902;2023-03-05T01:34:17;18.20;52.80
38464;DHT22;24243;51.956;5.902;2023-03-05T01:36:42;18.20;52.80
38464;DHT22;24243;51.956;5.902;2023-03-05T01:39:08;18.20;52.80
38464;DHT22;24243;51.956;5.902;2023-03-05T01:41:34;18.20;52.80
38464;DHT22;24243;51.956;5.902;2023-03-05T01:44:00;18.20;52.80
38464;DHT22;24243;51.956;5.902;2023-03-05T01:48:52;18.20;52.80
38464;DHT22;24243;51.956;5.902;2023-03-05T01:51:19;18.10;52.80
38464;DHT22;24243;51.956;5.902;2023-03-05T01:53:47;18.10;52.80
38464;DHT22;24243;51.956;5.902;2023-03-05T01:56:12;18.10;52.80
38464;DHT22;24243;51.956;5.902;2023-03-05T01:58:38;18.10;52.80
38464;DHT22;24243;51.956;5.902;2023-03-05T02:01:04;18.10;52.80
38464;DHT22;24243;51.956;5.902;2023-03-05T02:03:30;18.10;52.80
38464;DHT22;24243;51.956;5.902;2023-03-05T02:05:56;18.10;52.80
38464;DHT22;24243;51.956;5.902;2023-03-05T02:08:22;18.00;52.80
38464;DHT22;24243;51.956;5.902;2023-03-05T02:10:48;18.00;52.80
38464;DHT22;24243;51.956;5.902;2023-03-05T02:13:18;18.00;52.80
38464;DHT22;24243;51.956;5.902;2023-03-05T02:15:44;18.00;52.80
38464;DHT22;24243;51.956;5.902;2023-03-05T02:18:11;18.00;52.80
38464;DHT22;24243;51.956;5.902;2023-03-05T02:23:22;18.00;52.80
38464;DHT22;24243;51.956;5.902;2023-03-05T02:25:47;18.00;52.80
38464;DHT22;24243;51.956;5.902;2023-03-05T02:30:39;18.00;52.80
38464;DHT22;24243;51.956;5.902;2023-03-05T02:33:04;18.00;52.80
38464;DHT22;24243;51.956;5.902;2023-03-05T02:35:30;18.00;52.80
38464;DHT22;24243;51.956;5.902;2023-03-05T02:37:56;17.90;52.80
38464;DHT22;24243;51.956;5.902;2023-03-05T02:40:21;17.90;52.70
38464;DHT22;24243;51.956;5.902;2023-03-05T02:42:47;17.90;52.80
38464;DHT22;24243;51.956;5.902;2023-03-05T02:45:13;17.90;52.70
38464;DHT22;24243;51.956;5.902;2023-03-05T02:47:39;17.90;52.80
38464;DHT22;24243;51.956;5.902;2023-03-05T02:50:05;17.90;52.80
38464;DHT22;24243;51.956;5.902;2023-03-05T02:52:31;17.90;52.80
38464;DHT22;24243;51.956;5.902;2023-03-05T02:54:57;17.90;52.80
38464;DHT22;24243;51.956;5.902;2023-03-05T02:57:22;17.90;52.80
38464;DHT22;24243;51.956;5.902;2023-03-05T02:59:48;17.90;53.40
38464;DHT22;24243;51.956;5.902;2023-03-05T03:02:14;17.90;52.80
38464;DHT22;24243;51.956;5.902;2023-03-05T03:04:40;17.80;52.70
38464;DHT22;24243;51.956;5.902;2023-03-05T03:07:05;17.90;52.80
38464;DHT22;24243;51.956;5.902;2023-03-05T03:09:32;17.80;52.70
38464;DHT22;24243;51.956;5.902;2023-03-05T03:11:58;17.90;52.80
38464;DHT22;24243;51.956;5.902;2023-03-05T03:14:23;17.80;52.70
38464;DHT22;24243;51.956;5.902;2023-03-05T03:16:49;17.80;52.70
38464;DHT22;24243;51.956;5.902;2023-03-05T03:19:14;17.80;52.70
38464;DHT22;24243;51.956;5.902;2023-03-05T03:21:40;17.80;52.70
38464;DHT22;24243;51.956;5.902;2023-03-05T03:24:06;17.80;52.70
38464;DHT22;24243;51.956;5.902;2023-03-05T03:26:31;17.80;52.70
38464;DHT22;24243;51.956;5.902;2023-03-05T03:28:57;17.80;52.70
38464;DHT22;24243;51.956;5.902;2023-03-05T03:31:23;17.80;52.70
38464;DHT22;24243;51.956;5.902;2023-03-05T03:33:48;17.80;52.70
38464;DHT22;24243;51.956;5.902;2023-03-05T03:36:14;17.80;52.80
38464;DHT22;24243;51.956;5.902;2023-03-05T03:38:40;17.80;52.80
38464;DHT22;24243;51.956;5.902;2023-03-05T03:41:06;17.70;52.70
38464;DHT22;24243;51.956;5.902;2023-03-05T03:43:32;17.80;52.70
38464;DHT22;24243;51.956;5.902;2023-03-05T03:45:58;17.80;53.40
38464;DHT22;24243;51.956;5.902;2023-03-05T03:48:24;17.70;52.70
38464;DHT22;24243;51.956;5.902;2023-03-05T03:50:49;17.70;52.70
38464;DHT22;24243;51.956;5.902;2023-03-05T03:53:15;17.70;52.70
38464;DHT22;24243;51.956;5.902;2023-03-05T03:55:41;17.70;52.70
38464;DHT22;24243;51.956;5.902;2023-03-05T03:58:07;17.70;52.70
38464;DHT22;24243;51.956;5.902;2023-03-05T04:00:33;17.70;52.70
38464;DHT22;24243;51.956;5.902;2023-03-05T04:02:59;17.70;52.70
38464;DHT22;24243;51.956;5.902;2023-03-05T04:05:24;17.70;52.70
38464;DHT22;24243;51.956;5.902;2023-03-05T04:07:52;17.70;52.70
38464;DHT22;24243;51.956;5.902;2023-03-05T04:10:18;17.70;52.70
38464;DHT22;24243;51.956;5.902;2023-03-05T04:12:43;17.70;52.70
38464;DHT22;24243;51.956;5.902;2023-03-05T04:15:10;17.70;52.70
38464;DHT22;24243;51.956;5.902;2023-03-05T04:17:36;17.60;52.70
38464;DHT22;24243;51.956;5.902;2023-03-05T04:20:02;17.70;52.70
38464;DHT22;24243;51.956;5.902;2023-03-05T04:22:29;17.70;52.70
38464;DHT22;24243;51.956;5.902;2023-03-05T04:24:55;17.60;52.70
38464;DHT22;24243;51.956;5.902;2023-03-05T04:27:20;17.60;52.70
38464;DHT22;24243;51.956;5.902;2023-03-05T04:29:46;17.60;52.70
38464;DHT22;24243;51.956;5.902;2023-03-05T04:32:11;17.60;52.70
38464;DHT22;24243;51.956;5.902;2023-03-05T04:34:37;17.60;52.70
38464;DHT22;24243;51.956;5.902;2023-03-05T04:37:02;17.60;52.70
38464;DHT22;24243;51.956;5.902;2023-03-05T04:39:28;17.60;52.70
38464;DHT22;24243;51.956;5.902;2023-03-05T04:41:54;17.60;52.70
38464;DHT22;24243;51.956;5.902;2023-03-05T04:44:19;17.60;52.70
38464;DHT22;24243;51.956;5.902;2023-03-05T04:46:47;17.60;52.70
38464;DHT22;24243;51.956;5.902;2023-03-05T04:49:13;17.60;52.70
38464;DHT22;24243;51.956;5.902;2023-03-05T04:51:40;17.60;52.70
38464;DHT22;24243;51.956;5.902;2023-03-05T04:54:05;17.60;52.70
38464;DHT22;24243;51.956;5.902;2023-03-05T04:56:31;17.60;52.70
38464;DHT22;24243;51.956;5.902;2023-03-05T04:58:57;17.60;52.70
38464;DHT22;24243;51.956;5.902;2023-03-05T05:01:23;17.60;52.70
38464;DHT22;24243;51.956;5.902;2023-03-05T05:03:48;17.60;52.70
38464;DHT22;24243;51.956;5.902;2023-03-05T05:06:14;17.50;52.70
38464;DHT22;24243;51.956;5.902;2023-03-05T05:08:39;17.60;52.70
38464;DHT22;24243;51.956;5.902;2023-03-05T05:11:05;17.60;52.70
38464;DHT22;24243;51.956;5.902;2023-03-05T05:13:32;17.60;52.70
38464;DHT22;24243;51.956;5.902;2023-03-05T05:15:57;17.50;52.70
38464;DHT22;24243;51.956;5.902;2023-03-05T05:18:23;17.50;52.70
38464;DHT22;24243;51.956;5.902;2023-03-05T05:20:49;17.50;52.70
38464;DHT22;24243;51.956;5.902;2023-03-05T05:23:15;17.50;52.70
38464;DHT22;24243;51.956;5.902;2023-03-05T05:25:41;17.50;52.70
38464;DHT22;24243;51.956;5.902;2023-03-05T05:28:08;17.50;52.70
38464;DHT22;24243;51.956;5.902;2023-03-05T05:30:33;17.50;52.70
38464;DHT22;24243;51.956;5.902;2023-03-05T05:32:59;17.50;52.70
38464;DHT22;24243;51.956;5.902;2023-03-05T05:35:25;17.50;52.70
38464;DHT22;24243;51.956;5.902;2023-03-05T05:37:50;17.50;52.70
38464;DHT22;24243;51.956;5.902;2023-03-05T05:40:16;17.50;52.70
38464;DHT22;24243;51.956;5.902;2023-03-05T05:42:42;17.50;52.70
38464;DHT22;24243;51.956;5.902;2023-03-05T05:45:08;17.50;52.70
38464;DHT22;24243;51.956;5.902;2023-03-05T05:47:34;17.50;52.70
38464;DHT22;24243;51.956;5.902;2023-03-05T05:50:00;17.50;52.70
38464;DHT22;24243;51.956;5.902;2023-03-05T05:52:25;17.50;52.70
38464;DHT22;24243;51.956;5.902;2023-03-05T05:54:51;17.50;52.70
38464;DHT22;24243;51.956;5.902;2023-03-05T05:57:16;17.40;52.60
38464;DHT22;24243;51.956;5.902;2023-03-05T05:59:42;17.50;52.70
38464;DHT22;24243;51.956;5.902;2023-03-05T06:02:07;17.50;52.70
38464;DHT22;24243;51.956;5.902;2023-03-05T06:04:35;17.50;52.70
38464;DHT22;24243;51.956;5.902;2023-03-05T06:07:01;17.40;52.70
38464;DHT22;24243;51.956;5.902;2023-03-05T06:09:27;17.40;52.70
38464;DHT22;24243;51.956;5.902;2023-03-05T06:11:53;17.40;52.70
38464;DHT22;24243;51.956;5.902;2023-03-05T06:14:18;17.40;52.70
38464;DHT22;24243;51.956;5.902;2023-03-05T06:16:44;17.40;52.70
38464;DHT22;24243;51.956;5.902;2023-03-05T06:19:13;17.40;52.70
38464;DHT22;24243;51.956;5.902;2023-03-05T06:21:38;17.40;52.70
38464;DHT22;24243;51.956;5.902;2023-03-05T06:24:04;17.40;52.70
38464;DHT22;24243;51.956;5.902;2023-03-05T06:26:30;17.40;52.70
38464;DHT22;24243;51.956;5.902;2023-03-05T06:28:55;17.40;52.70
38464;DHT22;24243;51.956;5.902;2023-03-05T06:31:22;17.30;52.60
38464;DHT22;24243;51.956;5.902;2023-03-05T06:33:50;17.40;52.70
38464;DHT22;24243;51.956;5.902;2023-03-05T06:36:16;17.40;52.70
38464;DHT22;24243;51.956;5.902;2023-03-05T06:38:42;17.40;52.70
38464;DHT22;24243;51.956;5.902;2023-03-05T06:41:12;17.40;52.70
38464;DHT22;24243;51.956;5.902;2023-03-05T06:43:39;17.30;52.60
38464;DHT22;24243;51.956;5.902;2023-03-05T06:46:12;17.40;52.60
38464;DHT22;24243;51.956;5.902;2023-03-05T06:48:38;17.30;52.60
38464;DHT22;24243;51.956;5.902;2023-03-05T06:51:04;17.40;52.60
38464;DHT22;24243;51.956;5.902;2023-03-05T06:53:30;17.30;52.60
38464;DHT22;24243;51.956;5.902;2023-03-05T06:55:55;17.40;52.60
38464;DHT22;24243;51.956;5.902;2023-03-05T06:58:21;17.40;52.60
38464;DHT22;24243;51.956;5.902;2023-03-05T07:00:47;17.40;52.60
38464;DHT22;24243;51.956;5.902;2023-03-05T07:03:12;17.40;52.60
38464;DHT22;24243;51.956;5.902;2023-03-05T07:05:41;17.40;52.50
38464;DHT22;24243;51.956;5.902;2023-03-05T07:08:07;17.40;52.50
38464;DHT22;24243;51.956;5.902;2023-03-05T07:10:42;17.40;52.50
38464;DHT22;24243;51.956;5.902;2023-03-05T07:13:08;17.40;52.50
38464;DHT22;24243;51.956;5.902;2023-03-05T07:15:36;17.40;52.50
38464;DHT22;24243;51.956;5.902;2023-03-05T07:18:02;17.40;52.50
38464;DHT22;24243;51.956;5.902;2023-03-05T07:20:27;17.40;52.50
38464;DHT22;24243;51.956;5.902;2023-03-05T07:22:54;17.40;52.40
38464;DHT22;24243;51.956;5.902;2023-03-05T07:25:19;17.40;52.40
38464;DHT22;24243;51.956;5.902;2023-03-05T07:27:46;17.50;52.40
38464;DHT22;24243;51.956;5.902;2023-03-05T07:30:12;17.50;52.30
38464;DHT22;24243;51.956;5.902;2023-03-05T07:32:37;17.50;52.30
38464;DHT22;24243;51.956;5.902;2023-03-05T07:35:03;17.50;52.30
38464;DHT22;24243;51.956;5.902;2023-03-05T07:37:29;17.50;52.30
38464;DHT22;24243;51.956;5.902;2023-03-05T07:39:54;17.50;52.20
38464;DHT22;24243;51.956;5.902;2023-03-05T07:42:20;17.60;52.30
38464;DHT22;24243;51.956;5.902;2023-03-05T07:44:45;17.60;52.20
38464;DHT22;24243;51.956;5.902;2023-03-05T07:47:11;17.60;52.20
38464;DHT22;24243;51.956;5.902;2023-03-05T07:49:37;17.70;52.10
38464;DHT22;24243;51.956;5.902;2023-03-05T07:52:06;17.70;52.10
38464;DHT22;24243;51.956;5.902;2023-03-05T07:54:32;17.80;52.10
38464;DHT22;24243;51.956;5.902;2023-03-05T07:57:02;17.80;52.00
38464;DHT22;24243;51.956;5.902;2023-03-05T07:59:28;17.90;51.90
38464;DHT22;24243;51.956;5.902;2023-03-05T08:01:54;17.90;51.80
38464;DHT22;24243;51.956;5.902;2023-03-05T08:04:19;18.00;51.70
38464;DHT22;24243;51.956;5.902;2023-03-05T08:06:45;18.10;51.70
38464;DHT22;24243;51.956;5.902;2023-03-05T08:09:11;18.20;51.60
38464;DHT22;24243;51.956;5.902;2023-03-05T08:11:38;18.20;51.50
38464;DHT22;24243;51.956;5.902;2023-03-05T08:14:04;18.30;51.50
38464;DHT22;24243;51.956;5.902;2023-03-05T08:16:29;18.30;51.40
38464;DHT22;24243;51.956;5.902;2023-03-05T08:18:55;18.40;51.50
38464;DHT22;24243;51.956;5.902;2023-03-05T08:21:22;18.40;51.40
38464;DHT22;24243;51.956;5.902;2023-03-05T08:23:51;18.50;51.50
38464;DHT22;24243;51.956;5.902;2023-03-05T08:26:18;18.50;51.50
38464;DHT22;24243;51.956;5.902;2023-03-05T08:28:44;18.50;51.40
38464;DHT22;24243;51.956;5.902;2023-03-05T08:31:10;18.60;51.40
38464;DHT22;24243;51.956;5.902;2023-03-05T08:33:37;18.70;51.40
38464;DHT22;24243;51.956;5.902;2023-03-05T08:36:03;18.70;51.40
38464;DHT22;24243;51.956;5.902;2023-03-05T08:38:28;18.70;51.30
38464;DHT22;24243;51.956;5.902;2023-03-05T08:40:54;18.80;51.30
38464;DHT22;24243;51.956;5.902;2023-03-05T08:43:19;18.80;51.30
38464;DHT22;24243;51.956;5.902;2023-03-05T08:45:45;18.90;51.30
38464;DHT22;24243;51.956;5.902;2023-03-05T08:48:12;19.00;51.30
38464;DHT22;24243;51.956;5.902;2023-03-05T08:50:37;19.00;51.20
38464;DHT22;24243;51.956;5.902;2023-03-05T08:53:03;19.10;51.20
38464;DHT22;24243;51.956;5.902;2023-03-05T08:55:28;19.10;51.20
38464;DHT22;24243;51.956;5.902;2023-03-05T08:57:54;19.20;51.10
38464;DHT22;24243;51.956;5.902;2023-03-05T09:00:19;19.30;51.60
38464;DHT22;24243;51.956;5.902;2023-03-05T09:02:45;19.40;51.00
38464;DHT22;24243;51.956;5.902;2023-03-05T09:05:11;19.40;51.00
38464;DHT22;24243;51.956;5.902;2023-03-05T09:07:36;19.40;51.00
38464;DHT22;24243;51.956;5.902;2023-03-05T09:10:03;19.50;51.00
38464;DHT22;24243;51.956;5.902;2023-03-05T09:12:28;19.50;51.00
38464;DHT22;24243;51.956;5.902;2023-03-05T09:14:54;19.50;51.00
38464;DHT22;24243;51.956;5.902;2023-03-05T09:17:20;19.50;51.10
38464;DHT22;24243;51.956;5.902;2023-03-05T09:19:46;19.50;51.10
38464;DHT22;24243;51.956;5.902;2023-03-05T09:22:11;19.50;51.20
38464;DHT22;24243;51.956;5.902;2023-03-05T09:24:37;19.50;51.20
38464;DHT22;24243;51.956;5.902;2023-03-05T09:27:03;19.50;51.30
38464;DHT22;24243;51.956;5.902;2023-03-05T09:29:29;19.50;51.40
38464;DHT22;24243;51.956;5.902;2023-03-05T09:31:55;19.50;51.50
38464;DHT22;24243;51.956;5.902;2023-03-05T09:34:22;19.40;51.40
38464;DHT22;24243;51.956;5.902;2023-03-05T09:36:48;19.50;51.50
38464;DHT22;24243;51.956;5.902;2023-03-05T09:39:14;19.60;51.50
38464;DHT22;24243;51.956;5.902;2023-03-05T09:46:53;19.70;51.30
38464;DHT22;24243;51.956;5.902;2023-03-05T09:49:23;19.70;51.30
38464;DHT22;24243;51.956;5.902;2023-03-05T09:51:56;19.70;51.30
38464;DHT22;24243;51.956;5.902;2023-03-05T09:54:28;19.80;51.30
38464;DHT22;24243;51.956;5.902;2023-03-05T09:56:58;19.80;51.30
38464;DHT22;24243;51.956;5.902;2023-03-05T09:59:45;19.80;51.30
38464;DHT22;24243;51.956;5.902;2023-03-05T10:02:14;19.70;51.20
38464;DHT22;24243;51.956;5.902;2023-03-05T10:04:43;19.80;51.40
38464;DHT22;24243;51.956;5.902;2023-03-05T10:07:14;19.80;51.40
38464;DHT22;24243;51.956;5.902;2023-03-05T10:09:44;19.80;51.40
38464;DHT22;24243;51.956;5.902;2023-03-05T10:14:37;19.80;52.10
38464;DHT22;24243;51.956;5.902;2023-03-05T10:22:20;19.80;51.60
38464;DHT22;24243;51.956;5.902;2023-03-05T10:27:32;19.80;51.60
38464;DHT22;24243;51.956;5.902;2023-03-05T10:40:35;19.80;51.60
38464;DHT22;24243;51.956;5.902;2023-03-05T10:45:49;19.80;51.70
38464;DHT22;24243;51.956;5.902;2023-03-05T10:51:20;19.70;51.70
38464;DHT22;24243;51.956;5.902;2023-03-05T10:53:49;19.70;51.80
38464;DHT22;24243;51.956;5.902;2023-03-05T10:56:16;19.70;51.80
38464;DHT22;24243;51.956;5.902;2023-03-05T10:58:43;19.70;51.80
38464;DHT22;24243;51.956;5.902;2023-03-05T11:09:15;19.70;51.80
38464;DHT22;24243;51.956;5.902;2023-03-05T11:11:41;19.70;51.80
38464;DHT22;24243;51.956;5.902;2023-03-05T11:14:07;19.70;51.80
38464;DHT22;24243;51.956;5.902;2023-03-05T11:16:48;19.70;51.90
38464;DHT22;24243;51.956;5.902;2023-03-05T11:21:41;19.70;51.90
38464;DHT22;24243;51.956;5.902;2023-03-05T11:26:33;19.80;51.70
38464;DHT22;24243;51.956;5.902;2023-03-05T11:28:59;19.90;51.60
38464;DHT22;24243;51.956;5.902;2023-03-05T11:31:26;19.90;51.50
38464;DHT22;24243;51.956;5.902;2023-03-05T11:36:34;20.00;51.30
38464;DHT22;24243;51.956;5.902;2023-03-05T11:44:00;20.20;51.20
38464;DHT22;24243;51.956;5.902;2023-03-05T11:46:28;20.20;51.20
38464;DHT22;24243;51.956;5.902;2023-03-05T11:48:56;20.20;51.10
38464;DHT22;24243;51.956;5.902;2023-03-05T11:51:38;20.20;51.10
38464;DHT22;24243;51.956;5.902;2023-03-05T11:54:05;20.30;51.20
38464;DHT22;24243;51.956;5.902;2023-03-05T11:56:35;20.30;51.20
38464;DHT22;24243;51.956;5.902;2023-03-05T12:01:31;20.30;51.10
38464;DHT22;24243;51.956;5.902;2023-03-05T12:03:58;20.30;51.10
38464;DHT22;24243;51.956;5.902;2023-03-05T12:06:42;20.20;51.20
38464;DHT22;24243;51.956;5.902;2023-03-05T12:11:51;20.10;51.40
38464;DHT22;24243;51.956;5.902;2023-03-05T12:14:23;20.10;51.60
38464;DHT22;24243;51.956;5.902;2023-03-05T12:16:51;20.00;51.70
38464;DHT22;24243;51.956;5.902;2023-03-05T12:21:43;19.90;51.90
38464;DHT22;24243;51.956;5.902;2023-03-05T12:29:27;19.80;52.00
38464;DHT22;24243;51.956;5.902;2023-03-05T12:31:53;19.80;52.10
38464;DHT22;24243;51.956;5.902;2023-03-05T12:34:35;19.80;52.10
38464;DHT22;24243;51.956;5.902;2023-03-05T12:37:02;19.80;52.10
38464;DHT22;24243;51.956;5.902;2023-03-05T12:39:44;19.80;52.00
38464;DHT22;24243;51.956;5.902;2023-03-05T12:47:45;19.90;51.90
38464;DHT22;24243;51.956;5.902;2023-03-05T12:52:52;19.80;52.00
38464;DHT22;24243;51.956;5.902;2023-03-05T12:55:27;19.70;51.90
38464;DHT22;24243;51.956;5.902;2023-03-05T12:57:58;19.80;52.00
38464;DHT22;24243;51.956;5.902;2023-03-05T13:00:26;19.70;52.00
38464;DHT22;24243;51.956;5.902;2023-03-05T13:02:55;19.70;52.10
38464;DHT22;24243;51.956;5.902;2023-03-05T13:05:29;19.70;52.20
38464;DHT22;24243;51.956;5.902;2023-03-05T13:10:40;19.60;52.30
38464;DHT22;24243;51.956;5.902;2023-03-05T13:13:10;19.60;52.30
38464;DHT22;24243;51.956;5.902;2023-03-05T13:15:36;19.50;52.30
38464;DHT22;24243;51.956;5.902;2023-03-05T13:18:03;19.50;52.30
38464;DHT22;24243;51.956;5.902;2023-03-05T13:23:15;19.50;52.40
38464;DHT22;24243;51.956;5.902;2023-03-05T13:25:43;19.50;52.40
38464;DHT22;24243;51.956;5.902;2023-03-05T13:28:10;19.40;52.40
38464;DHT22;24243;51.956;5.902;2023-03-05T13:30:36;19.40;52.30
38464;DHT22;24243;51.956;5.902;2023-03-05T13:33:02;19.40;52.40
38464;DHT22;24243;51.956;5.902;2023-03-05T13:35:28;19.40;52.50
38464;DHT22;24243;51.956;5.902;2023-03-05T13:37:54;19.40;52.50
38464;DHT22;24243;51.956;5.902;2023-03-05T13:40:27;19.40;52.40
38464;DHT22;24243;51.956;5.902;2023-03-05T13:43:05;19.30;52.40
38464;DHT22;24243;51.956;5.902;2023-03-05T13:45:32;19.30;52.40
38464;DHT22;24243;51.956;5.902;2023-03-05T13:47:59;19.30;52.50
38464;DHT22;24243;51.956;5.902;2023-03-05T13:50:32;19.30;52.50
38464;DHT22;24243;51.956;5.902;2023-03-05T13:53:14;19.20;52.50
38464;DHT22;24243;51.956;5.902;2023-03-05T13:55:40;19.20;52.50
38464;DHT22;24243;51.956;5.902;2023-03-05T13:58:38;19.20;52.50
38464;DHT22;24243;51.956;5.902;2023-03-05T14:01:01;19.20;52.50
38464;DHT22;24243;51.956;5.902;2023-03-05T14:03:26;19.20;52.60
38464;DHT22;24243;51.956;5.902;2023-03-05T14:05:52;19.20;52.60
38464;DHT22;24243;51.956;5.902;2023-03-05T14:08:19;19.10;52.50
38464;DHT22;24243;51.956;5.902;2023-03-05T14:10:45;19.20;52.50
38464;DHT22;24243;51.956;5.902;2023-03-05T14:13:12;19.20;52.60
38464;DHT22;24243;51.956;5.902;2023-03-05T14:15:38;19.20;52.50
38464;DHT22;24243;51.956;5.902;2023-03-05T14:18:13;19.10;52.50
38464;DHT22;24243;51.956;5.902;2023-03-05T14:20:41;19.10;52.50
38464;DHT22;24243;51.956;5.902;2023-03-05T14:26:09;19.10;52.50
38464;DHT22;24243;51.956;5.902;2023-03-05T14:28:35;19.20;52.50
38464;DHT22;24243;51.956;5.902;2023-03-05T14:31:01;19.20;52.40
38464;DHT22;24243;51.956;5.902;2023-03-05T14:33:28;19.20;52.40
38464;DHT22;24243;51.956;5.902;2023-03-05T14:35:55;19.20;52.30
38464;DHT22;24243;51.956;5.902;2023-03-05T14:38:29;19.20;52.30
38464;DHT22;24243;51.956;5.902;2023-03-05T14:40:56;19.20;52.20
38464;DHT22;24243;51.956;5.902;2023-03-05T14:43:21;19.30;52.20
38464;DHT22;24243;51.956;5.902;2023-03-05T14:45:47;19.30;52.20
38464;DHT22;24243;51.956;5.902;2023-03-05T14:48:13;19.30;52.10
38464;DHT22;24243;51.956;5.902;2023-03-05T14:50:43;19.30;52.10
38464;DHT22;24243;51.956;5.902;2023-03-05T14:53:12;19.30;52.10
38464;DHT22;24243;51.956;5.902;2023-03-05T14:55:39;19.40;52.10
38464;DHT22;24243;51.956;5.902;2023-03-05T14:58:14;19.40;52.10
38464;DHT22;24243;51.956;5.902;2023-03-05T15:00:41;19.40;52.00
38464;DHT22;24243;51.956;5.902;2023-03-05T15:03:09;19.40;52.00
38464;DHT22;24243;51.956;5.902;2023-03-05T15:05:35;19.40;52.00
38464;DHT22;24243;51.956;5.902;2023-03-05T15:08:01;19.40;52.00
38464;DHT22;24243;51.956;5.902;2023-03-05T15:10:27;19.40;52.00
38464;DHT22;24243;51.956;5.902;2023-03-05T15:12:52;19.40;52.00
38464;DHT22;24243;51.956;5.902;2023-03-05T15:15:18;19.40;51.90
38464;DHT22;24243;51.956;5.902;2023-03-05T15:17:45;19.50;52.00
38464;DHT22;24243;51.956;5.902;2023-03-05T15:20:16;19.50;52.00
38464;DHT22;24243;51.956;5.902;2023-03-05T15:22:42;19.50;52.00
38464;DHT22;24243;51.956;5.902;2023-03-05T15:25:08;19.50;52.00
38464;DHT22;24243;51.956;5.902;2023-03-05T15:27:33;19.50;52.00
38464;DHT22;24243;51.956;5.902;2023-03-05T15:29:59;19.40;52.00
38464;DHT22;24243;51.956;5.902;2023-03-05T15:32:28;19.40;52.10
38464;DHT22;24243;51.956;5.902;2023-03-05T15:34:55;19.40;52.10
38464;DHT22;24243;51.956;5.902;2023-03-05T15:37:21;19.40;52.10
38464;DHT22;24243;51.956;5.902;2023-03-05T15:39:46;19.40;52.10
38464;DHT22;24243;51.956;5.902;2023-03-05T15:42:12;19.50;52.20
38464;DHT22;24243;51.956;5.902;2023-03-05T15:44:38;19.50;52.20
38464;DHT22;24243;51.956;5.902;2023-03-05T15:47:04;19.40;52.10
38464;DHT22;24243;51.956;5.902;2023-03-05T15:49:30;19.40;52.10
38464;DHT22;24243;51.956;5.902;2023-03-05T15:51:56;19.40;52.20
38464;DHT22;24243;51.956;5.902;2023-03-05T15:54:22;19.40;52.20
38464;DHT22;24243;51.956;5.902;2023-03-05T15:56:47;19.40;52.10
38464;DHT22;24243;51.956;5.902;2023-03-05T15:59:13;19.40;52.20
38464;DHT22;24243;51.956;5.902;2023-03-05T16:01:40;19.40;52.20
38464;DHT22;24243;51.956;5.902;2023-03-05T16:04:07;19.40;52.10
38464;DHT22;24243;51.956;5.902;2023-03-05T16:06:36;19.40;52.10
38464;DHT22;24243;51.956;5.902;2023-03-05T16:09:02;19.40;52.10
38464;DHT22;24243;51.956;5.902;2023-03-05T16:11:32;19.40;52.10
38464;DHT22;24243;51.956;5.902;2023-03-05T16:14:00;19.40;52.10
38464;DHT22;24243;51.956;5.902;2023-03-05T16:16:27;19.40;52.10
38464;DHT22;24243;51.956;5.902;2023-03-05T16:18:52;19.40;52.20
38464;DHT22;24243;51.956;5.902;2023-03-05T16:21:19;19.40;52.20
38464;DHT22;24243;51.956;5.902;2023-03-05T16:23:45;19.40;52.20
38464;DHT22;24243;51.956;5.902;2023-03-05T16:26:10;19.40;52.20
38464;DHT22;24243;51.956;5.902;2023-03-05T16:28:36;19.40;52.20
38464;DHT22;24243;51.956;5.902;2023-03-05T16:31:02;19.50;52.30
38464;DHT22;24243;51.956;5.902;2023-03-05T16:33:27;19.40;52.20
38464;DHT22;24243;51.956;5.902;2023-03-05T16:36:27;19.40;52.20
38464;DHT22;24243;51.956;5.902;2023-03-05T16:38:46;19.40;52.90
38464;DHT22;24243;51.956;5.902;2023-03-05T16:41:16;19.40;52.30
38464;DHT22;24243;51.956;5.902;2023-03-05T16:43:43;19.40;52.30
38464;DHT22;24243;51.956;5.902;2023-03-05T16:46:09;19.40;52.40
38464;DHT22;24243;51.956;5.902;2023-03-05T16:48:34;19.40;52.40
38464;DHT22;24243;51.956;5.902;2023-03-05T16:51:01;19.40;52.40
38464;DHT22;24243;51.956;5.902;2023-03-05T16:53:27;19.40;52.40
38464;DHT22;24243;51.956;5.902;2023-03-05T16:55:53;19.40;52.40
38464;DHT22;24243;51.956;5.902;2023-03-05T16:58:18;19.40;52.40